createdAt,value
2023-05-15T00:01:07.840Z,85.09
2023-05-15T00:03:36.799Z,85.71
2023-05-15T00:06:08.861Z,86.43
2023-05-15T00:08:38.933Z,86.25
2023-05-15T00:11:08.258Z,86.90
2023-05-15T00:13:39.129Z,87.12
2023-05-15T00:16:09.420Z,87.78
2023-05-15T00:18:42.403Z,87.40
2023-05-15T00:21:10.826Z,86.64
2023-05-15T00:23:42.284Z,87.38
2023-05-15T00:26:10.484Z,87.47
2023-05-15T00:28:42.060Z,87.51
2023-05-15T00:31:12.428Z,88.26
2023-05-15T00:33:41.514Z,88.69
2023-05-15T00:36:11.715Z,89.04
2023-05-15T00:38:44.738Z,89.10
2023-05-15T00:41:14.451Z,89.29
2023-05-15T00:43:48.185Z,90.22
2023-05-15T00:46:21.181Z,89.47
2023-05-15T00:48:53.326Z,89.32
2023-05-15T00:51:23.170Z,88.85
2023-05-15T00:53:54.932Z,88.88
2023-05-15T00:56:26.124Z,88.72
2023-05-15T00:58:57.094Z,88.62
2023-05-15T01:01:27.535Z,88.61
2023-05-15T01:03:58.990Z,88.08
2023-05-15T01:06:27.243Z,88.12
2023-05-15T01:08:58.523Z,88.16
2023-05-15T01:11:35.718Z,87.97
2023-05-15T01:14:08.669Z,88.37
2023-05-15T01:16:39.879Z,88.78
2023-05-15T01:19:09.941Z,88.60
2023-05-15T01:22:18.191Z,88.63
2023-05-15T01:25:21.692Z,90.26
2023-05-15T01:27:52.428Z,90.28
2023-05-15T01:30:26.141Z,90.76
2023-05-15T01:33:03.116Z,89.90
2023-05-15T01:35:40.018Z,90.40
2023-05-15T01:38:24.324Z,90.30
2023-05-15T01:41:01.552Z,91.21
2023-05-15T01:43:36.497Z,90.95
2023-05-15T01:46:06.970Z,91.09
2023-05-15T01:48:39.082Z,90.88
2023-05-15T01:51:19.195Z,91.00
2023-05-15T01:53:47.957Z,90.32
2023-05-15T01:56:26.111Z,90.79
2023-05-15T01:59:00.108Z,91.32
2023-05-15T02:01:35.236Z,90.68
2023-05-15T02:04:04.609Z,91.94
2023-05-15T02:06:34.677Z,91.45
2023-05-15T02:09:05.552Z,91.98
2023-05-15T02:11:37.159Z,92.28
2023-05-15T02:14:08.557Z,91.79
2023-05-15T02:16:38.132Z,92.03
2023-05-15T02:19:09.611Z,91.46
2023-05-15T02:21:42.101Z,91.39
2023-05-15T02:24:12.151Z,92.27
2023-05-15T02:26:58.729Z,91.92
2023-05-15T02:29:36.633Z,92.50
2023-05-15T02:32:15.745Z,92.17
2023-05-15T02:34:51.879Z,91.42
2023-05-15T02:37:27.709Z,91.69
2023-05-15T02:39:59.853Z,91.93
2023-05-15T02:42:33.118Z,91.46
2023-05-15T02:45:08.086Z,91.47
2023-05-15T02:47:38.163Z,90.35
2023-05-15T02:50:10.464Z,91.25
2023-05-15T02:52:42.319Z,91.93
2023-05-15T02:55:11.704Z,92.00
2023-05-15T02:57:42.480Z,92.26
2023-05-15T03:00:16.253Z,92.53
2023-05-15T03:02:46.592Z,92.18
2023-05-15T03:05:19.528Z,91.29
2023-05-15T03:07:50.545Z,91.42
2023-05-15T03:10:25.511Z,91.93
2023-05-15T03:13:08.145Z,92.41
2023-05-15T03:15:45.237Z,92.56
2023-05-15T03:18:19.647Z,92.38
2023-05-15T03:20:50.542Z,92.31
2023-05-15T03:23:20.450Z,92.31
2023-05-15T03:25:56.563Z,92.76
2023-05-15T03:28:26.946Z,92.53
2023-05-15T03:30:57.484Z,93.04
2023-05-15T03:33:27.457Z,92.47
2023-05-15T03:35:59.625Z,92.42
2023-05-15T03:38:28.601Z,92.84
2023-05-15T03:41:01.156Z,92.48
2023-05-15T03:43:32.706Z,92.54
2023-05-15T03:46:10.592Z,92.37
2023-05-15T03:48:48.985Z,92.20
2023-05-15T03:51:17.909Z,92.74
2023-05-15T03:53:52.064Z,92.90
2023-05-15T03:56:21.735Z,92.43
2023-05-15T03:58:53.707Z,92.12
2023-05-15T04:01:23.339Z,92.49
2023-05-15T04:03:57.810Z,91.99
2023-05-15T04:06:31.490Z,91.67
2023-05-15T04:09:00.748Z,92.38
2023-05-15T04:11:30.422Z,92.19
2023-05-15T04:13:59.343Z,91.71
2023-05-15T04:16:30.855Z,91.79
2023-05-15T04:18:59.077Z,91.24
2023-05-15T04:21:29.568Z,91.99
2023-05-15T04:23:58.744Z,91.70
2023-05-15T04:26:29.027Z,91.18
2023-05-15T04:29:04.116Z,91.25
2023-05-15T04:31:44.405Z,90.57
2023-05-15T04:34:16.948Z,90.91
2023-05-15T04:36:55.153Z,90.63
2023-05-15T04:39:23.837Z,91.29
2023-05-15T04:41:52.015Z,90.22
2023-05-15T04:44:23.504Z,90.14
2023-05-15T04:46:53.686Z,89.91
2023-05-15T04:49:22.581Z,89.31
2023-05-15T04:51:51.055Z,89.33
2023-05-15T04:54:19.418Z,88.69
2023-05-15T04:56:47.853Z,88.72
2023-05-15T04:59:18.457Z,88.08
2023-05-15T05:01:51.757Z,87.89
2023-05-15T05:04:24.125Z,87.60
2023-05-15T05:06:52.680Z,87.86
2023-05-15T05:09:24.641Z,87.64
2023-05-15T05:11:52.948Z,87.12
2023-05-15T05:14:25.368Z,87.42
2023-05-15T05:16:53.807Z,85.62
2023-05-15T05:19:23.326Z,85.28
2023-05-15T05:21:51.935Z,84.35
2023-05-15T05:24:21.075Z,83.98
2023-05-15T05:26:52.559Z,83.93
2023-05-15T05:29:22.608Z,83.83
2023-05-15T05:31:50.668Z,82.93
2023-05-15T05:34:20.909Z,82.82
2023-05-15T05:36:53.783Z,81.85
2023-05-15T05:39:25.096Z,82.39
2023-05-15T05:41:54.688Z,81.99
2023-05-15T05:44:25.653Z,81.67
2023-05-15T05:46:54.624Z,81.07
2023-05-15T05:49:25.291Z,81.01
2023-05-15T05:51:56.342Z,80.77
2023-05-15T05:54:28.122Z,80.35
2023-05-15T05:56:56.180Z,80.27
2023-05-15T05:59:26.396Z,79.59
2023-05-15T06:01:57.133Z,79.36
2023-05-15T06:04:25.875Z,78.89
2023-05-15T06:06:56.726Z,78.33
2023-05-15T06:09:25.809Z,77.46
2023-05-15T06:11:56.285Z,77.50
2023-05-15T06:14:26.065Z,77.59
2023-05-15T06:16:55.137Z,77.13
2023-05-15T06:19:23.374Z,76.98
2023-05-15T06:21:52.661Z,75.38
2023-05-15T06:24:24.759Z,73.52
2023-05-15T06:26:57.460Z,74.39
2023-05-15T06:29:28.007Z,73.54
2023-05-15T06:31:56.515Z,71.73
2023-05-15T06:34:27.790Z,71.07
2023-05-15T06:36:55.863Z,71.15
2023-05-15T06:39:30.664Z,68.99
2023-05-15T06:42:01.632Z,69.53
2023-05-15T06:44:33.122Z,68.76
2023-05-15T06:47:02.525Z,69.11
2023-05-15T06:49:33.257Z,68.21
2023-05-15T06:52:01.090Z,67.63
2023-05-15T06:54:30.837Z,67.71
2023-05-15T06:56:58.740Z,67.08
2023-05-15T06:59:28.440Z,66.00
2023-05-15T07:01:57.920Z,65.17
2023-05-15T07:04:26.146Z,66.09
2023-05-15T07:06:58.984Z,65.17
2023-05-15T07:09:28.157Z,66.06
2023-05-15T07:12:00.414Z,62.54
2023-05-15T07:14:31.256Z,63.13
2023-05-15T07:17:01.979Z,64.62
2023-05-15T07:19:31.938Z,64.45
2023-05-15T07:22:03.101Z,62.23
2023-05-15T07:24:34.925Z,64.50
2023-05-15T07:27:07.748Z,65.43
2023-05-15T07:29:37.399Z,62.38
2023-05-15T07:32:09.196Z,61.09
2023-05-15T07:34:37.585Z,62.81
2023-05-15T07:37:06.481Z,61.49
2023-05-15T07:39:39.875Z,62.15
2023-05-15T07:42:14.275Z,62.35
2023-05-15T07:44:49.343Z,62.59
2023-05-15T07:47:19.727Z,62.09
2023-05-15T07:49:49.074Z,61.14
2023-05-15T07:52:19.640Z,59.35
2023-05-15T07:54:50.467Z,58.61
2023-05-15T07:57:25.663Z,58.32
2023-05-15T07:59:57.173Z,57.14
2023-05-15T08:02:26.843Z,58.88
2023-05-15T08:07:47.889Z,58.58
2023-05-15T08:10:17.230Z,55.66
2023-05-15T08:12:48.818Z,54.74
2023-05-15T08:15:21.911Z,55.17
2023-05-15T08:17:54.788Z,54.04
2023-05-15T08:20:32.592Z,54.85
2023-05-15T08:23:05.405Z,54.87
2023-05-15T08:25:35.300Z,54.73
2023-05-15T08:28:06.523Z,54.69
2023-05-15T08:30:42.288Z,54.66
2023-05-15T08:33:10.633Z,54.90
2023-05-15T08:35:44.379Z,52.74
2023-05-15T08:38:12.737Z,53.95
2023-05-15T08:40:42.556Z,52.09
2023-05-15T08:43:16.076Z,52.82
2023-05-15T08:45:46.483Z,53.46
2023-05-15T08:48:20.666Z,53.77
2023-05-15T08:50:52.803Z,53.13
2023-05-15T08:53:21.748Z,52.80
2023-05-15T08:55:52.731Z,51.78
2023-05-15T08:58:26.695Z,51.93
2023-05-15T09:00:59.645Z,51.86
2023-05-15T09:03:29.125Z,50.74
2023-05-15T09:05:59.768Z,50.28
2023-05-15T09:08:33.684Z,51.05
2023-05-15T09:11:04.681Z,51.70
2023-05-15T09:13:37.916Z,50.91
2023-05-15T09:16:07.423Z,51.26
2023-05-15T09:18:35.380Z,50.74
2023-05-15T09:21:25.031Z,49.38
2023-05-15T09:23:56.923Z,47.83
2023-05-15T09:26:28.721Z,48.99
2023-05-15T09:29:03.960Z,49.51
2023-05-15T09:31:39.822Z,48.66
2023-05-15T09:34:11.564Z,48.16
2023-05-15T09:36:44.910Z,45.70
2023-05-15T09:39:13.263Z,45.17
2023-05-15T09:41:55.543Z,45.10
2023-05-15T09:44:28.058Z,43.74
2023-05-15T09:46:57.444Z,43.29
2023-05-15T09:49:27.054Z,43.97
2023-05-15T09:51:58.563Z,42.31
2023-05-15T09:54:30.008Z,41.58
2023-05-15T09:56:58.474Z,40.85
2023-05-15T09:59:31.557Z,42.45
2023-05-15T10:02:03.492Z,43.58
2023-05-15T10:07:30.163Z,42.15
2023-05-15T10:10:04.792Z,42.96
2023-05-15T10:12:39.082Z,42.73
2023-05-15T10:15:15.108Z,41.73
2023-05-15T10:17:49.639Z,41.67
2023-05-15T10:20:20.265Z,41.00
2023-05-15T10:22:52.524Z,40.29
2023-05-15T10:25:33.503Z,40.00
2023-05-15T10:28:07.401Z,39.45
2023-05-15T10:30:42.795Z,39.67
2023-05-15T10:33:15.373Z,41.23
2023-05-15T10:35:44.322Z,45.25
2023-05-15T10:38:13.945Z,43.28
2023-05-15T10:40:43.504Z,44.67
2023-05-15T10:43:15.287Z,45.40
2023-05-15T10:45:46.301Z,46.27
2023-05-15T10:48:18.032Z,49.27
2023-05-15T10:50:45.913Z,46.02
2023-05-15T10:53:14.689Z,46.43
2023-05-15T10:55:42.985Z,47.45
2023-05-15T10:58:16.352Z,45.71
2023-05-15T11:00:50.772Z,44.61
2023-05-15T11:03:48.640Z,43.52
2023-05-15T11:06:30.902Z,43.64
2023-05-15T11:09:35.701Z,41.21
2023-05-15T11:12:05.092Z,42.17
2023-05-15T11:14:34.569Z,41.27
2023-05-15T11:17:07.831Z,41.82
2023-05-15T11:19:44.345Z,42.67
2023-05-15T11:22:25.729Z,43.07
2023-05-15T11:24:58.724Z,44.79
2023-05-15T11:27:31.913Z,45.42
2023-05-15T11:30:11.402Z,46.10
2023-05-15T11:33:03.714Z,44.79
2023-05-15T11:35:37.585Z,43.79
2023-05-15T11:38:12.577Z,43.07
2023-05-15T11:40:49.177Z,42.96
2023-05-15T11:43:23.972Z,42.83
2023-05-15T11:45:58.530Z,43.13
2023-05-15T11:48:36.394Z,42.74
2023-05-15T11:51:05.858Z,43.32
2023-05-15T11:53:49.666Z,43.27
2023-05-15T11:56:21.671Z,42.89
2023-05-15T12:01:43.183Z,43.19
2023-05-15T12:04:18.116Z,42.78
2023-05-15T12:06:47.607Z,44.71
2023-05-15T12:09:16.061Z,45.22
2023-05-15T12:11:50.539Z,45.94
2023-05-15T12:14:18.659Z,45.82
2023-05-15T12:16:51.613Z,46.20
2023-05-15T12:19:26.103Z,45.93
2023-05-15T12:21:57.777Z,47.25
2023-05-15T12:24:32.431Z,45.51
2023-05-15T12:27:00.937Z,46.36
2023-05-15T12:29:56.845Z,46.81
2023-05-15T12:32:34.231Z,47.09
2023-05-15T12:35:06.380Z,46.04
2023-05-15T12:37:41.852Z,46.04
2023-05-15T12:40:12.613Z,46.69
2023-05-15T12:42:44.991Z,45.47
2023-05-15T12:45:16.891Z,44.09
2023-05-15T12:47:47.128Z,42.67
2023-05-15T12:50:20.409Z,42.99
2023-05-15T12:52:54.021Z,44.59
2023-05-15T12:55:29.233Z,44.24
2023-05-15T12:57:58.700Z,44.31
2023-05-15T13:00:30.606Z,41.65
2023-05-15T13:03:01.508Z,42.90
2023-05-15T13:05:33.665Z,42.75
2023-05-15T13:08:04.561Z,43.00
2023-05-15T13:10:37.710Z,41.62
2023-05-15T13:13:08.849Z,42.21
2023-05-15T13:15:40.895Z,43.22
2023-05-15T13:18:14.277Z,43.26
2023-05-15T13:20:47.853Z,43.52
2023-05-15T13:23:20.582Z,40.27
2023-05-15T13:25:54.740Z,39.56
2023-05-15T13:28:23.750Z,39.45
2023-05-15T13:30:55.975Z,36.55
2023-05-15T13:36:32.738Z,40.41
2023-05-15T13:42:16.035Z,42.08
2023-05-15T13:44:56.609Z,42.35
2023-05-15T13:47:34.018Z,42.91
2023-05-15T13:53:43.218Z,44.38
2023-05-15T13:56:13.660Z,44.12
2023-05-15T13:58:48.678Z,45.19
2023-05-15T14:01:23.323Z,47.58
2023-05-15T14:03:53.850Z,50.78
2023-05-15T14:06:23.993Z,53.23
2023-05-15T14:08:58.241Z,55.79
2023-05-15T14:11:31.221Z,53.79
2023-05-15T14:13:59.899Z,51.76
2023-05-15T14:16:33.104Z,51.35
2023-05-15T14:19:02.745Z,53.78
2023-05-15T14:21:31.803Z,54.60
2023-05-15T14:24:12.548Z,55.62
2023-05-15T14:26:41.528Z,55.36
2023-05-15T14:29:15.815Z,57.24
2023-05-15T14:31:44.292Z,58.87
2023-05-15T14:34:14.272Z,61.75
2023-05-15T14:36:44.470Z,67.87
2023-05-15T14:39:17.579Z,67.04
2023-05-15T14:41:46.862Z,68.44
2023-05-15T14:44:18.000Z,67.78
2023-05-15T14:46:49.515Z,73.22
2023-05-15T14:49:21.315Z,73.23
2023-05-15T14:51:49.483Z,76.90
2023-05-15T14:54:20.402Z,77.24
2023-05-15T14:56:58.281Z,80.57
2023-05-15T14:59:30.082Z,81.75
2023-05-15T15:01:58.711Z,80.63
2023-05-15T15:04:30.639Z,80.57
2023-05-15T15:07:04.110Z,80.96
2023-05-15T15:09:37.240Z,80.24
2023-05-15T15:12:07.832Z,80.82
2023-05-15T15:14:46.811Z,77.64
2023-05-15T15:17:17.325Z,80.71
2023-05-15T15:19:58.705Z,80.32
2023-05-15T15:22:28.820Z,78.66
2023-05-15T15:25:02.475Z,81.22
2023-05-15T15:27:45.403Z,80.96
2023-05-15T15:30:16.005Z,82.30
2023-05-15T15:32:49.523Z,80.65
2023-05-15T15:35:18.811Z,83.35
2023-05-15T15:37:52.552Z,82.72
2023-05-15T15:40:26.107Z,82.63
2023-05-15T15:43:07.232Z,81.57
2023-05-15T15:45:36.022Z,83.96
2023-05-15T15:48:04.382Z,81.98
2023-05-15T15:50:35.733Z,82.15
2023-05-15T15:53:05.569Z,80.82
2023-05-15T15:55:44.595Z,78.36
2023-05-15T15:58:22.777Z,80.40
2023-05-15T16:00:51.979Z,77.47
2023-05-15T16:03:24.961Z,78.09
2023-05-15T16:05:53.724Z,77.70
2023-05-15T16:08:23.314Z,83.35
2023-05-15T16:10:54.311Z,80.37
2023-05-15T16:13:24.423Z,78.86
2023-05-15T16:15:54.823Z,78.71
2023-05-15T16:18:26.034Z,76.31
2023-05-15T16:21:04.118Z,75.36
2023-05-15T16:23:42.946Z,75.92
2023-05-15T16:26:14.411Z,73.52
2023-05-15T16:28:43.253Z,73.85
2023-05-15T16:31:12.749Z,72.47
2023-05-15T16:33:42.595Z,71.42
2023-05-15T16:36:11.383Z,69.78
2023-05-15T16:38:42.861Z,70.54
2023-05-15T16:41:17.660Z,72.79
2023-05-15T16:43:46.497Z,72.11
2023-05-15T16:46:19.518Z,72.80
2023-05-15T16:48:48.161Z,70.87
2023-05-15T16:51:22.500Z,71.64
2023-05-15T16:54:01.031Z,70.75
2023-05-15T16:56:30.429Z,71.11
2023-05-15T16:59:10.870Z,73.13
2023-05-15T17:01:41.987Z,70.70
2023-05-15T17:04:12.396Z,73.24
2023-05-15T17:06:44.154Z,73.67
2023-05-15T17:09:13.667Z,70.23
2023-05-15T17:11:53.511Z,71.40
2023-05-15T17:14:23.235Z,71.37
2023-05-15T17:16:52.547Z,72.70
2023-05-15T17:19:29.117Z,72.64
2023-05-15T17:22:01.088Z,70.16
2023-05-15T17:24:38.758Z,71.77
2023-05-15T17:27:19.695Z,74.96
2023-05-15T17:29:49.514Z,72.78
2023-05-15T17:32:19.007Z,69.86
2023-05-15T17:34:49.545Z,70.76
2023-05-15T17:37:18.594Z,70.31
2023-05-15T17:39:49.071Z,70.76
2023-05-15T17:42:19.474Z,71.78
2023-05-15T17:44:53.111Z,68.38
2023-05-15T17:47:46.921Z,68.80
2023-05-15T17:50:15.620Z,66.52
2023-05-15T17:52:48.817Z,64.81
2023-05-15T17:55:22.481Z,64.92
2023-05-15T17:57:56.451Z,66.01
2023-05-15T18:00:25.473Z,64.12
2023-05-15T18:02:55.146Z,65.55
2023-05-15T18:05:23.504Z,64.77
2023-05-15T18:07:56.597Z,65.70
2023-05-15T18:10:25.673Z,65.86
2023-05-15T18:12:55.571Z,66.04
2023-05-15T18:15:27.549Z,65.74
2023-05-15T18:17:57.526Z,66.91
2023-05-15T18:20:26.292Z,65.57
2023-05-15T18:22:54.743Z,66.63
2023-05-15T18:25:23.063Z,66.74
2023-05-15T18:27:52.455Z,67.27
2023-05-15T18:30:24.815Z,68.25
2023-05-15T18:32:55.248Z,68.84
2023-05-15T18:35:23.572Z,69.89
2023-05-15T18:37:52.828Z,69.95
2023-05-15T18:40:22.297Z,69.60
2023-05-15T18:42:50.654Z,70.10
2023-05-15T18:45:21.530Z,71.09
2023-05-15T18:47:55.144Z,72.63
2023-05-15T18:50:25.514Z,71.56
2023-05-15T18:52:54.124Z,70.03
2023-05-15T18:55:22.776Z,68.66
2023-05-15T18:57:50.876Z,68.08
2023-05-15T19:00:37.925Z,67.09
2023-05-15T19:03:13.596Z,68.40
2023-05-15T19:05:43.237Z,73.08
2023-05-15T19:08:18.379Z,76.37
2023-05-15T19:10:49.380Z,74.81
2023-05-15T19:13:19.044Z,72.90
2023-05-15T19:15:55.541Z,74.71
2023-05-15T19:18:26.428Z,71.68
2023-05-15T19:20:56.731Z,74.26
2023-05-15T19:23:31.966Z,74.94
2023-05-15T19:26:00.924Z,75.45
2023-05-15T19:28:32.056Z,76.33
2023-05-15T19:31:11.768Z,75.47
2023-05-15T19:33:46.710Z,75.04
2023-05-15T19:36:18.014Z,76.91
2023-05-15T19:38:47.143Z,75.64
2023-05-15T19:41:17.132Z,75.79
2023-05-15T19:46:32.549Z,76.55
2023-05-15T19:49:10.448Z,75.29
2023-05-15T19:51:41.691Z,74.99
2023-05-15T19:54:11.171Z,76.17
2023-05-15T19:56:42.912Z,77.70
2023-05-15T19:59:10.778Z,77.56
2023-05-15T20:01:41.723Z,77.01
2023-05-15T20:04:32.413Z,76.75
2023-05-15T20:07:04.657Z,76.05
2023-05-15T20:09:34.245Z,73.29
2023-05-15T20:12:02.938Z,72.81
2023-05-15T20:14:37.268Z,74.56
2023-05-15T20:17:14.515Z,75.31
2023-05-15T20:19:46.893Z,76.78
2023-05-15T20:22:25.166Z,77.49
2023-05-15T20:24:56.412Z,72.35
2023-05-15T20:27:31.825Z,75.17
2023-05-15T20:30:07.860Z,72.46
2023-05-15T20:32:39.673Z,72.99
2023-05-15T20:35:24.786Z,75.50
2023-05-15T20:37:58.875Z,76.49
2023-05-15T20:40:31.994Z,76.82
2023-05-15T20:43:01.216Z,79.65
2023-05-15T20:45:40.660Z,79.04
2023-05-15T20:48:11.265Z,79.31
2023-05-15T20:50:42.169Z,79.33
2023-05-15T20:53:12.652Z,80.14
2023-05-15T20:55:40.828Z,80.37
2023-05-15T20:58:11.559Z,78.91
2023-05-15T21:00:44.238Z,77.43
2023-05-15T21:03:15.676Z,79.01
2023-05-15T21:05:45.968Z,78.02
2023-05-15T21:08:13.791Z,79.66
2023-05-15T21:10:42.449Z,80.04
2023-05-15T21:13:39.554Z,81.71
2023-05-15T21:16:08.733Z,83.36
2023-05-15T21:18:40.900Z,80.30
2023-05-15T21:21:13.372Z,79.48
2023-05-15T21:23:43.027Z,80.25
2023-05-15T21:26:10.912Z,80.85
2023-05-15T21:28:42.909Z,81.53
2023-05-15T21:31:14.633Z,79.57
2023-05-15T21:36:43.891Z,81.39
2023-05-15T21:39:15.258Z,81.55
2023-05-15T21:41:54.777Z,81.68
2023-05-15T21:44:35.200Z,82.99
2023-05-15T21:47:33.617Z,83.68
2023-05-15T21:50:04.565Z,83.25
2023-05-15T21:52:50.747Z,82.25
2023-05-15T21:55:36.957Z,82.43
2023-05-15T21:58:25.013Z,81.60
2023-05-15T22:01:03.090Z,82.04
2023-05-15T22:03:33.265Z,82.39
2023-05-15T22:06:09.462Z,81.19
2023-05-15T22:08:51.148Z,82.10
2023-05-15T22:11:25.955Z,81.76
2023-05-15T22:14:10.777Z,81.13
2023-05-15T22:16:41.260Z,81.14
2023-05-15T22:19:32.201Z,81.57
2023-05-15T22:22:04.282Z,80.29
2023-05-15T22:24:38.079Z,80.32
2023-05-15T22:27:06.765Z,79.93
2023-05-15T22:29:43.811Z,79.23
2023-05-15T22:32:11.609Z,78.45
2023-05-15T22:34:39.466Z,78.59
2023-05-15T22:37:07.542Z,77.78
2023-05-15T22:39:37.799Z,78.04
2023-05-15T22:42:07.164Z,78.20
2023-05-15T22:44:35.465Z,78.01
2023-05-15T22:47:03.232Z,77.88
2023-05-15T22:49:31.002Z,77.54
2023-05-15T22:51:59.682Z,77.91
2023-05-15T22:54:27.727Z,77.46
2023-05-15T22:56:59.890Z,77.26
2023-05-15T22:59:27.858Z,77.41
2023-05-15T23:01:56.044Z,77.01
2023-05-15T23:04:24.250Z,77.55
2023-05-15T23:06:52.089Z,77.63
2023-05-15T23:09:21.303Z,78.11
2023-05-15T23:11:49.472Z,78.25
2023-05-15T23:14:19.135Z,78.08
2023-05-15T23:16:50.233Z,78.47
2023-05-15T23:19:20.767Z,78.28
2023-05-15T23:21:48.829Z,78.62
2023-05-15T23:24:17.194Z,78.40
2023-05-15T23:26:44.966Z,78.92
2023-05-15T23:29:13.147Z,79.04
2023-05-15T23:31:43.608Z,79.18
2023-05-15T23:34:11.532Z,79.15
2023-05-15T23:36:40.479Z,79.54
2023-05-15T23:39:09.396Z,79.51
2023-05-15T23:41:37.519Z,79.44
2023-05-15T23:44:07.460Z,79.44
2023-05-15T23:46:38.372Z,79.81
2023-05-15T23:49:07.794Z,80.46
2023-05-15T23:51:36.042Z,79.76
2023-05-15T23:54:06.308Z,79.61
2023-05-15T23:56:35.941Z,79.51
2023-05-15T23:59:04.447Z,79.67
